createdAt,value
2022-07-26T00:02:23.889Z,4.70
2022-07-26T00:12:25.724Z,5.05
2022-07-26T00:22:36.413Z,5.00
2022-07-26T00:32:39.094Z,4.57
2022-07-26T00:42:41.080Z,4.80
2022-07-26T00:52:47.181Z,4.70
2022-07-26T01:02:49.601Z,4.05
2022-07-26T01:12:51.471Z,4.50
2022-07-26T01:22:53.186Z,4.00
2022-07-26T01:32:54.848Z,5.13
2022-07-26T01:42:59.815Z,3.80
2022-07-26T01:53:01.501Z,5.10
2022-07-26T02:03:09.851Z,4.43
2022-07-26T02:13:15.580Z,4.28
2022-07-26T02:23:24.276Z,3.80
2022-07-26T02:33:27.251Z,4.50
2022-07-26T02:43:30.756Z,4.82
2022-07-26T02:53:33.103Z,4.60
2022-07-26T03:03:36.520Z,4.65
2022-07-26T03:13:38.561Z,6.20
2022-07-26T03:23:40.425Z,7.43
2022-07-26T03:33:42.332Z,7.07
2022-07-26T03:43:43.984Z,6.68
2022-07-26T03:53:45.805Z,7.50
2022-07-26T04:03:48.003Z,5.68
2022-07-26T04:13:49.857Z,6.70
2022-07-26T04:23:51.986Z,6.43
2022-07-26T04:33:53.804Z,7.20
2022-07-26T04:43:56.339Z,6.57
2022-07-26T04:54:03.245Z,6.18
2022-07-26T05:04:05.111Z,6.38
2022-07-26T05:14:09.272Z,6.15
2022-07-26T05:24:12.609Z,5.65
2022-07-26T05:34:14.745Z,6.00
2022-07-26T05:44:16.350Z,6.03
2022-07-26T05:54:22.852Z,5.47
2022-07-26T06:04:30.574Z,5.68
2022-07-26T06:14:32.389Z,5.38
2022-07-26T06:24:34.126Z,5.63
2022-07-26T06:34:49.872Z,6.63
2022-07-26T06:44:53.053Z,6.40
2022-07-26T06:54:56.120Z,6.65
2022-07-26T07:04:57.933Z,6.22
2022-07-26T07:15:06.200Z,7.20
2022-07-26T07:25:10.000Z,7.22
2022-07-26T07:35:13.249Z,6.03
2022-07-26T07:45:19.876Z,6.63
2022-07-26T07:55:46.063Z,5.75
2022-07-26T08:05:49.439Z,5.63
2022-07-26T08:15:53.823Z,5.80
2022-07-26T08:26:03.201Z,5.38
2022-07-26T08:36:09.185Z,5.53
2022-07-26T08:46:16.392Z,5.53
2022-07-26T08:56:18.135Z,5.40
2022-07-26T09:06:26.327Z,5.90
2022-07-26T09:16:30.967Z,6.10
2022-07-26T09:26:33.347Z,6.30
2022-07-26T09:36:52.591Z,6.00
2022-07-26T09:47:14.777Z,6.30
2022-07-26T09:57:22.476Z,5.07
2022-07-26T10:07:24.696Z,5.68
2022-07-26T10:17:31.810Z,6.30
2022-07-26T10:37:59.714Z,8.52
2022-07-26T10:48:29.431Z,8.13
2022-07-26T10:58:43.278Z,9.73
2022-07-26T11:08:48.468Z,12.13
2022-07-26T11:18:50.435Z,9.40
2022-07-26T11:29:06.809Z,10.98
2022-07-26T11:39:15.212Z,9.95
2022-07-26T11:49:25.097Z,9.40
2022-07-26T11:59:36.855Z,9.07
2022-07-26T12:09:46.791Z,9.25
2022-07-26T12:19:48.659Z,8.30
2022-07-26T12:29:55.684Z,7.88
2022-07-26T12:40:18.125Z,10.40
2022-07-26T12:50:23.635Z,6.72
2022-07-26T13:00:25.792Z,7.75
2022-07-26T13:10:36.360Z,6.80
2022-07-26T13:20:38.699Z,6.38
2022-07-26T13:30:47.592Z,7.18
2022-07-26T13:40:50.575Z,6.78
2022-07-26T13:50:55.545Z,7.07
2022-07-26T14:01:02.638Z,7.97
2022-07-26T14:11:05.234Z,8.05
2022-07-26T14:21:10.493Z,7.82
2022-07-26T14:31:12.726Z,8.23
2022-07-26T14:41:16.227Z,9.07
2022-07-26T14:51:22.509Z,9.00
2022-07-26T15:01:24.332Z,10.63
2022-07-26T15:11:26.171Z,10.70
2022-07-26T15:21:28.755Z,12.00
2022-07-26T15:31:36.999Z,12.90
2022-07-26T15:41:39.386Z,11.67
2022-07-26T15:51:43.716Z,10.38
2022-07-26T16:01:47.252Z,10.95
2022-07-26T16:11:50.247Z,10.60
2022-07-26T16:21:52.244Z,10.95
2022-07-26T16:31:56.437Z,12.88
2022-07-26T16:42:07.133Z,19.30
2022-07-26T16:52:11.300Z,13.02
2022-07-26T17:02:13.232Z,14.30
2022-07-26T17:12:16.695Z,14.85
2022-07-26T17:22:18.709Z,13.63
2022-07-26T17:32:20.533Z,13.65
2022-07-26T17:42:22.982Z,18.55
2022-07-26T17:52:24.576Z,16.10
2022-07-26T18:02:34.720Z,15.57
2022-07-26T18:12:36.444Z,15.68
2022-07-26T18:22:39.466Z,16.27
2022-07-26T18:32:41.142Z,16.42
2022-07-26T18:42:51.709Z,17.08
2022-07-26T18:52:53.319Z,16.45
2022-07-26T19:02:57.944Z,18.25
2022-07-26T19:12:59.786Z,18.75
2022-07-26T19:23:01.593Z,19.35
2022-07-26T19:33:04.189Z,19.98
2022-07-26T19:43:09.128Z,18.50
2022-07-26T19:53:16.312Z,19.35
2022-07-26T20:03:19.005Z,17.63
2022-07-26T20:13:20.859Z,20.80
2022-07-26T20:23:25.710Z,14.55
2022-07-26T20:33:38.063Z,14.75
2022-07-26T20:43:39.873Z,13.10
2022-07-26T20:53:42.287Z,12.02
2022-07-26T21:03:44.549Z,11.68
2022-07-26T21:13:54.040Z,10.68
2022-07-26T21:24:04.458Z,11.63
2022-07-26T21:34:06.177Z,11.07
2022-07-26T21:44:09.484Z,9.38
2022-07-26T21:54:12.348Z,9.57
2022-07-26T22:04:14.019Z,8.10
2022-07-26T22:14:17.438Z,7.50
2022-07-26T22:24:19.252Z,6.97
2022-07-26T22:34:21.105Z,6.65
2022-07-26T22:44:25.089Z,6.57
2022-07-26T22:54:26.834Z,6.28
2022-07-26T23:04:28.532Z,6.63
2022-07-26T23:14:30.475Z,6.50
2022-07-26T23:24:32.307Z,6.50
2022-07-26T23:34:34.988Z,6.47
2022-07-26T23:44:36.808Z,6.60
2022-07-26T23:54:41.928Z,5.32
